Time;durP1;ratioP1;P1;durP2;ratioP2;P2;SDS_P1;SDS_P2;PMS_P1;PMS_P2;Temp;Humidity;BMP_temperature;BMP_pressure;BME280_temperature;BME280_humidity;BME280_pressure;Samples;Min_cycle;Max_cycle;Signal;HPM_P1;HPM_P2
2022/09/22 00:01:31;;;;;;;;;;;;;;;20.47;nan;95313.91;5505420;28;2153;-74
2022/09/22 00:04:15;;;;;;;;;;;;;;;20.47;nan;95302.41;5500659;28;1545;-74
2022/09/22 00:06:58;;;;;;;;;;;;;;;20.47;nan;95303.22;5508637;28;1633;-74
2022/09/22 00:09:41;;;;;;;;;;;;;;;20.47;nan;95297.06;5508848;28;1456;-73
2022/09/22 00:12:24;;;;;;;;;;;;;;;20.48;nan;95304.03;5509478;28;1636;-73
2022/09/22 00:15:08;;;;;;;;;;;;;;;;;;5495271;28;1804;-73
2022/09/22 00:17:51;;;;;;;;;;;;;;;20.48;nan;95298.69;5512758;28;2069;-74
2022/09/22 00:20:38;;;;;;;;;;;;;;;20.47;nan;95286.38;5514216;28;1836;-74
2022/09/22 00:23:20;;;;;;;;;;;;;;;;;;5513602;28;1751;-74
2022/09/22 00:26:07;;;;;;;;;;;;;;;20.48;nan;95293.34;5508384;28;1464;-70
2022/09/22 00:28:51;;;;;;;;;;;;;;;20.47;nan;95297.06;5506345;28;1653;-70
2022/09/22 00:31:35;;;;;;;;;;;;;;;20.44;nan;95292.94;5512637;28;1730;-70
2022/09/22 00:34:19;;;;;;;;;;;;;;;20.44;nan;95292.94;5510809;28;1525;-69
2022/09/22 00:37:03;;;;;;;;;;;;;;;20.43;nan;95295.81;5510378;28;1976;-69
2022/09/22 00:39:46;;;;;;;;;;;;;;;20.43;nan;95285.13;5505201;28;1759;-69
2022/09/22 00:42:28;;;;;;;;;;;;;;;;;;5512526;28;1503;-70
2022/09/22 00:45:12;;;;;;;;;;;;;;;20.43;nan;95291.31;5512577;28;1550;-70
2022/09/22 00:47:54;;;;;;;;;;;;;;;20.41;nan;95293.34;5512177;28;1574;-70
2022/09/22 00:50:38;;;;;;;;;;;;;;;20.41;nan;95297.88;5503169;28;1509;-70
2022/09/22 00:53:24;;;;;;;;;;;;;;;20.40;nan;95290.88;5511034;28;1801;-70
2022/09/22 00:56:09;;;;;;;;;;;;;;;20.40;nan;95297.03;5512794;28;1981;-70
2022/09/22 00:58:56;;;;;;;;;;;;;;;20.40;nan;95290.88;5506913;28;1488;-70
2022/09/22 01:01:39;;;;;;;;;;;;;;;20.39;nan;95295.41;5492880;28;1607;-70
2022/09/22 01:04:22;;;;;;;;;;;;;;;20.39;nan;95283.91;5512522;28;1418;-70
2022/09/22 01:07:05;;;;;;;;;;;;;;;20.39;nan;95273.22;5511055;28;1570;-70
2022/09/22 01:09:48;;;;;;;;;;;;;;;;;;5511043;28;1503;-70
2022/09/22 01:12:30;;;;;;;;;;;;;;;;;;5502485;28;1686;-70
2022/09/22 01:15:20;;;;;;;;;;;;;;;20.39;nan;95294.59;5511917;28;1491;-70
2022/09/22 01:18:09;;;;;;;;;;;;;;;20.38;nan;95292.94;5512922;28;1918;-70
2022/09/22 01:21:14;;;;;;;;;;;;;;;20.37;nan;95286.78;5511458;28;1510;-70
2022/09/22 01:24:07;;;;;;;;;;;;;;;20.37;nan;95291.28;5494432;28;1480;-69
2022/09/22 01:26:50;;;;;;;;;;;;;;;;;;5498009;28;1650;-69
2022/09/22 01:29:44;;;;;;;;;;;;;;;20.37;nan;95291.28;5511087;28;1519;-69
2022/09/22 01:32:31;;;;;;;;;;;;;;;20.36;nan;95290.44;5512330;28;1601;-69
2022/09/22 01:35:17;;;;;;;;;;;;;;;20.37;nan;95291.28;5502221;28;1457;-72
2022/09/22 01:38:06;;;;;;;;;;;;;;;20.38;nan;95276.94;5510210;28;1910;-72
2022/09/22 01:40:52;;;;;;;;;;;;;;;20.39;nan;95289.25;5510877;28;1721;-67
2022/09/22 01:43:41;;;;;;;;;;;;;;;20.40;nan;95285.53;5511382;28;1423;-69
2022/09/22 01:46:26;;;;;;;;;;;;;;;20.41;nan;95277.34;5501907;28;1795;-73
2022/09/22 01:49:13;;;;;;;;;;;;;;;20.43;nan;95274.47;5504905;28;1625;-67
2022/09/22 01:51:58;;;;;;;;;;;;;;;20.42;nan;95278.97;5510416;28;1756;-67
2022/09/22 01:54:40;;;;;;;;;;;;;;;;;;5511325;28;1493;-68
2022/09/22 01:57:26;;;;;;;;;;;;;;;20.41;nan;95282.69;5506005;28;1914;-67
2022/09/22 02:00:10;;;;;;;;;;;;;;;20.42;nan;95283.50;5508210;28;1691;-67
2022/09/22 02:02:54;;;;;;;;;;;;;;;20.41;nan;95288.03;5509915;28;1744;-67
2022/09/22 02:05:40;;;;;;;;;;;;;;;20.41;nan;95288.03;5509379;28;1672;-67
2022/09/22 02:08:26;;;;;;;;;;;;;;;20.43;nan;95285.13;5507008;28;1424;-73
2022/09/22 02:11:12;;;;;;;;;;;;;;;20.45;nan;95283.09;5507363;28;1816;-72
2022/09/22 02:13:55;;;;;;;;;;;;;;;20.46;nan;95285.56;5513084;28;1794;-76
2022/09/22 02:16:38;;;;;;;;;;;;;;;20.51;nan;95287.59;5512358;28;1753;-75
2022/09/22 02:19:24;;;;;;;;;;;;;;;20.52;nan;95283.94;5512562;28;1844;-76
2022/09/22 02:22:08;;;;;;;;;;;;;;;20.52;nan;95294.59;5503485;28;1718;-74
2022/09/22 02:24:51;;;;;;;;;;;;;;;20.50;nan;95286.78;5512017;28;1551;-68
2022/09/22 02:27:35;;;;;;;;;;;;;;;20.47;nan;95287.19;5510972;28;1666;-68
2022/09/22 02:30:18;;;;;;;;;;;;;;;20.46;nan;95285.56;5510350;28;1721;-67
2022/09/22 02:33:01;;;;;;;;;;;;;;;20.45;nan;95273.22;5501469;28;1562;-67
2022/09/22 02:35:44;;;;;;;;;;;;;;;;;;5511266;28;1659;-68
2022/09/22 02:38:34;;;;;;;;;;;;;;;20.42;nan;95278.97;5518132;28;2190;-68
2022/09/22 02:41:20;;;;;;;;;;;;;;;20.42;nan;95267.47;5509894;28;1749;-67
2022/09/22 02:44:06;;;;;;;;;;;;;;;20.43;nan;95285.13;5503156;28;1583;-68
2022/09/22 02:46:53;;;;;;;;;;;;;;;20.42;nan;95288.84;5510830;28;1775;-68
2022/09/22 02:49:36;;;;;;;;;;;;;;;20.41;nan;95281.88;5510138;28;1803;-68
2022/09/22 02:52:20;;;;;;;;;;;;;;;20.41;nan;95271.19;5508470;28;1564;-68
2022/09/22 02:55:03;;;;;;;;;;;;;;;;;;5502235;28;1643;-73
2022/09/22 02:57:47;;;;;;;;;;;;;;;20.45;nan;95294.59;5511230;28;2003;-74
2022/09/22 03:00:31;;;;;;;;;;;;;;;20.45;nan;95288.44;5510592;28;1602;-75
2022/09/22 03:03:14;;;;;;;;;;;;;;;20.44;nan;95287.59;5510702;28;1995;-74
2022/09/22 03:05:57;;;;;;;;;;;;;;;20.44;nan;95281.47;5502195;28;1658;-72
2022/09/22 03:08:40;;;;;;;;;;;;;;;20.50;nan;95286.78;5510264;28;1706;-71
2022/09/22 03:11:24;;;;;;;;;;;;;;;20.54;nan;95292.53;5507952;28;1555;-70
2022/09/22 03:14:09;;;;;;;;;;;;;;;20.54;nan;95287.19;5509756;28;1789;-71
2022/09/22 03:16:51;;;;;;;;;;;;;;;20.55;nan;95283.53;5506615;28;1610;-71
2022/09/22 03:19:34;;;;;;;;;;;;;;;20.56;nan;95208.56;5505967;28;1922;-71
2022/09/22 03:22:17;;;;;;;;;;;;;;;20.56;nan;95279.81;5510957;28;1733;-71
2022/09/22 03:25:00;;;;;;;;;;;;;;;20.58;nan;95287.63;5500439;28;1552;-71
2022/09/22 03:27:43;;;;;;;;;;;;;;;20.56;nan;95290.50;5510487;28;1666;-71
2022/09/22 03:30:27;;;;;;;;;;;;;;;20.57;nan;95292.13;5501686;28;1580;-71
2022/09/22 03:33:10;;;;;;;;;;;;;;;20.53;nan;95290.91;5509556;28;1569;-68
2022/09/22 03:35:53;;;;;;;;;;;;;;;20.50;nan;95291.31;5509600;28;1609;-68
2022/09/22 03:38:36;;;;;;;;;;;;;;;20.48;nan;95288.84;5510626;28;1906;-69
2022/09/22 03:41:19;;;;;;;;;;;;;;;20.48;nan;95293.34;5499713;28;1669;-69
2022/09/22 03:44:02;;;;;;;;;;;;;;;20.49;nan;95289.69;5508167;28;1650;-68
2022/09/22 03:46:46;;;;;;;;;;;;;;;20.47;nan;95291.72;5508226;28;1570;-68
2022/09/22 03:49:29;;;;;;;;;;;;;;;20.45;nan;95293.75;5507588;28;1485;-68
2022/09/22 03:52:12;;;;;;;;;;;;;;;20.46;nan;95300.75;5499353;28;1591;-68
2022/09/22 03:54:54;;;;;;;;;;;;;;;20.44;nan;95286.78;5508782;28;1784;-68
2022/09/22 03:57:38;;;;;;;;;;;;;;;20.44;nan;95292.13;5508380;28;1906;-68
2022/09/22 04:00:22;;;;;;;;;;;;;;;20.44;nan;95292.13;5505596;28;1642;-68
2022/09/22 04:03:06;;;;;;;;;;;;;;;20.48;nan;95293.34;5499867;28;1643;-75
2022/09/22 04:05:49;;;;;;;;;;;;;;;20.57;nan;95302.81;5509132;28;1632;-77
2022/09/22 04:08:32;;;;;;;;;;;;;;;20.61;nan;95297.91;5507551;28;1711;-74
2022/09/22 04:11:15;;;;;;;;;;;;;;;20.65;nan;95304.47;5508187;28;1623;-75
2022/09/22 04:14:00;;;;;;;;;;;;;;;20.65;nan;95305.28;5504573;28;1669;-74
2022/09/22 04:16:44;;;;;;;;;;;;;;;20.66;nan;95285.56;5502741;28;1658;-74
2022/09/22 04:19:31;;;;;;;;;;;;;;;20.65;nan;95304.47;5505703;28;1910;-74
2022/09/22 04:22:14;;;;;;;;;;;;;;;20.67;nan;95303.22;5506736;28;1557;-74
2022/09/22 04:24:57;;;;;;;;;;;;;;;20.68;nan;95310.19;5507958;28;1658;-74
2022/09/22 04:27:40;;;;;;;;;;;;;;;20.67;nan;95303.22;5500500;28;1525;-75
2022/09/22 04:30:23;;;;;;;;;;;;;;;20.68;nan;95294.19;5508378;28;1442;-75
2022/09/22 04:33:06;;;;;;;;;;;;;;;20.67;nan;95303.22;5507793;28;1700;-75
2022/09/22 04:35:50;;;;;;;;;;;;;;;20.68;nan;95304.03;5508606;28;1427;-70
2022/09/22 04:38:33;;;;;;;;;;;;;;;19.81;nan;95298.53;5499423;28;1906;-65
2022/09/22 04:41:16;;;;;;;;;;;;;;;18.93;nan;95289.44;5507906;28;1627;-66
2022/09/22 04:43:59;;;;;;;;;;;;;;;;;;5508610;28;1699;-66
2022/09/22 04:46:44;;;;;;;;;;;;;;;18.64;nan;95306.38;5508567;28;1754;-66
2022/09/22 04:49:27;;;;;;;;;;;;;;;18.33;nan;95289.72;5499355;28;1713;-66
2022/09/22 04:52:12;;;;;;;;;;;;;;;18.37;nan;95295.50;5506769;28;1545;-66
2022/09/22 04:54:54;;;;;;;;;;;;;;;18.17;nan;95305.13;5505815;28;1501;-64
2022/09/22 04:57:38;;;;;;;;;;;;;;;18.05;nan;95302.97;5506959;28;1684;-65
2022/09/22 05:00:22;;;;;;;;;;;;;;;18.08;nan;95302.56;5503493;28;1918;-65
2022/09/22 05:03:07;;;;;;;;;;;;;;;18.02;nan;95302.50;5513548;28;1576;-65
2022/09/22 05:05:50;;;;;;;;;;;;;;;17.85;nan;95296.59;5530240;28;1548;-66
2022/09/22 05:08:34;;;;;;;;;;;;;;;17.81;nan;95306.78;5512876;28;1394;-66
2022/09/22 05:11:18;;;;;;;;;;;;;;;17.71;nan;95306.22;5508229;28;1587;-66
2022/09/22 05:14:01;;;;;;;;;;;;;;;17.59;nan;95313.03;5508368;28;1882;-66
2022/09/22 05:16:44;;;;;;;;;;;;;;;17.86;nan;95308.88;5506816;28;1784;-76
2022/09/22 05:19:27;;;;;;;;;;;;;;;18.12;nan;95313.66;5511643;28;1971;-65
2022/09/22 05:22:10;;;;;;;;;;;;;;;18.13;nan;95315.31;5512226;28;1544;-67
2022/09/22 05:24:52;;;;;;;;;;;;;;;;;;5505037;28;1876;-66
2022/09/22 05:27:36;;;;;;;;;;;;;;;18.00;nan;95315.97;5511952;28;1558;-75
2022/09/22 05:30:20;;;;;;;;;;;;;;;18.38;nan;95313.13;5513159;28;1569;-67
2022/09/22 05:33:03;;;;;;;;;;;;;;;18.19;nan;95319.06;5511500;28;1762;-67
2022/09/22 05:35:46;;;;;;;;;;;;;;;18.17;nan;95316.56;5504150;28;1719;-74
2022/09/22 05:38:29;;;;;;;;;;;;;;;17.87;nan;95311.34;5510825;28;1967;-72
2022/09/22 05:41:12;;;;;;;;;;;;;;;17.78;nan;95311.63;5511407;28;1007;-68
2022/09/22 05:43:56;;;;;;;;;;;;;;;17.84;nan;95311.75;5512329;28;1647;-67
2022/09/22 05:46:39;;;;;;;;;;;;;;;17.61;nan;95316.31;5503040;28;1714;-66
2022/09/22 05:49:22;;;;;;;;;;;;;;;17.58;nan;95312.19;5510150;28;1733;-66
2022/09/22 05:52:05;;;;;;;;;;;;;;;;;;5512804;28;1702;-66
2022/09/22 05:54:47;;;;;;;;;;;;;;;;;;5512091;28;1363;-65
2022/09/22 05:57:30;;;;;;;;;;;;;;;18.72;nan;95319.56;5505533;28;1548;-66
2022/09/22 06:00:15;;;;;;;;;;;;;;;19.06;nan;95321.44;5511592;28;1992;-72
2022/09/22 06:02:58;;;;;;;;;;;;;;;19.23;nan;95311.31;5490786;28;1025;-67
2022/09/22 06:05:41;;;;;;;;;;;;;;;19.29;nan;95310.56;5489881;28;1018;-67
2022/09/22 06:08:24;;;;;;;;;;;;;;;19.34;nan;95318.75;5499403;28;1640;-67
2022/09/22 06:11:07;;;;;;;;;;;;;;;19.36;nan;95316.72;5506311;28;1747;-67
2022/09/22 06:13:50;;;;;;;;;;;;;;;19.32;nan;95320.81;5510556;28;1558;-66
2022/09/22 06:16:34;;;;;;;;;;;;;;;19.33;nan;95322.47;5510369;28;993;-67
2022/09/22 06:19:17;;;;;;;;;;;;;;;19.34;nan;95318.75;5506714;28;1914;-67
2022/09/22 06:22:01;;;;;;;;;;;;;;;19.35;nan;95320.44;5504319;28;1045;-67
2022/09/22 06:24:44;;;;;;;;;;;;;;;19.45;nan;95320.88;5509043;28;1029;-66
2022/09/22 06:27:27;;;;;;;;;;;;;;;19.49;nan;95321.31;5509310;28;1078;-67
2022/09/22 06:30:11;;;;;;;;;;;;;;;19.52;nan;95326.25;5510008;28;1053;-66
2022/09/22 06:32:56;;;;;;;;;;;;;;;19.56;nan;95321.38;5501828;28;1216;-67
2022/09/22 06:35:41;;;;;;;;;;;;;;;19.62;nan;95325.91;5510615;28;990;-67
2022/09/22 06:38:24;;;;;;;;;;;;;;;19.62;nan;95331.25;5511048;28;1100;-67
2022/09/22 06:41:08;;;;;;;;;;;;;;;19.59;nan;95320.97;5510392;28;1926;-66
2022/09/22 06:43:54;;;;;;;;;;;;;;;19.65;nan;95325.53;5502233;28;1153;-67
2022/09/22 06:46:37;;;;;;;;;;;;;;;19.68;nan;95330.47;5510492;28;1010;-67
2022/09/22 06:49:22;;;;;;;;;;;;;;;19.70;nan;95317.75;5511391;28;999;-66
2022/09/22 06:52:09;;;;;;;;;;;;;;;;;;5510307;28;1217;-67
2022/09/22 06:54:57;;;;;;;;;;;;;;;19.74;nan;95318.19;5501329;28;1092;-67
2022/09/22 06:57:40;;;;;;;;;;;;;;;19.74;nan;95319.00;5510353;28;1759;-66
2022/09/22 07:00:23;;;;;;;;;;;;;;;19.76;nan;95326.81;5510290;28;1918;-67
2022/09/22 07:03:07;;;;;;;;;;;;;;;19.80;nan;95307.53;5509676;28;1015;-65
2022/09/22 07:05:56;;;;;;;;;;;;;;;19.84;nan;95302.63;5501491;28;1200;-67
2022/09/22 07:08:39;;;;;;;;;;;;;;;19.84;nan;95319.47;5509446;28;1165;-67
2022/09/22 07:11:22;;;;;;;;;;;;;;;19.89;nan;95317.03;5510696;28;1101;-67
2022/09/22 07:14:05;;;;;;;;;;;;;;;19.93;nan;95317.44;5510463;28;1018;-67
2022/09/22 07:16:50;;;;;;;;;;;;;;;19.99;nan;95315.81;5501768;28;1357;-67
2022/09/22 07:19:34;;;;;;;;;;;;;;;20.02;nan;95316.22;5509649;28;1985;-67
2022/09/22 07:22:18;;;;;;;;;;;;;;;20.05;nan;95315.00;5510001;28;1161;-67
2022/09/22 07:25:02;;;;;;;;;;;;;;;20.08;nan;95314.59;5510164;28;1085;-67
2022/09/22 07:27:45;;;;;;;;;;;;;;;20.11;nan;95303.53;5506195;28;1079;-67
2022/09/22 07:30:29;;;;;;;;;;;;;;;20.14;nan;95308.44;5505900;28;1017;-67
2022/09/22 07:33:11;;;;;;;;;;;;;;;20.14;nan;95312.97;5510160;28;1009;-67
2022/09/22 07:36:03;;;;;;;;;;;;;;;20.18;nan;95309.72;5510162;28;1136;-67
2022/09/22 07:38:50;;;;;;;;;;;;;;;20.18;nan;95309.72;5505419;28;1371;-67
2022/09/22 07:41:40;;;;;;;;;;;;;;;20.22;nan;95316.28;5505607;28;1906;-67
2022/09/22 07:50:26;;;;;;;;;;;;;;;;;;5506982;28;1166;-67
2022/09/22 07:53:08;;;;;;;;;;;;;;;20.29;nan;95321.66;5504994;28;1232;-67
2022/09/22 07:55:52;;;;;;;;;;;;;;;20.31;nan;95320.38;5510002;28;985;-67
2022/09/22 07:58:35;;;;;;;;;;;;;;;20.33;nan;95317.53;5510454;28;1086;-67
2022/09/22 08:01:19;;;;;;;;;;;;;;;20.35;nan;95326.16;5507473;28;1906;-67
2022/09/22 08:04:03;;;;;;;;;;;;;;;20.37;nan;95324.13;5505053;28;1103;-67
2022/09/22 08:06:47;;;;;;;;;;;;;;;20.37;nan;95324.13;5509471;28;1089;-67
2022/09/22 08:09:32;;;;;;;;;;;;;;;20.36;nan;95317.13;5509096;28;1005;-67
2022/09/22 08:12:16;;;;;;;;;;;;;;;20.34;nan;95314.69;5509614;28;1042;-67
2022/09/22 08:14:58;;;;;;;;;;;;;;;20.36;nan;95317.13;5501115;28;1085;-68
2022/09/22 08:17:42;;;;;;;;;;;;;;;20.34;nan;95314.69;5510000;28;1129;-68
2022/09/22 08:20:27;;;;;;;;;;;;;;;20.36;nan;95316.31;5510033;28;1898;-66
2022/09/22 08:23:11;;;;;;;;;;;;;;;20.37;nan;95312.63;5509478;28;1072;-66
2022/09/22 08:25:54;;;;;;;;;;;;;;;20.37;nan;95312.63;5500030;28;1104;-67
2022/09/22 08:28:38;;;;;;;;;;;;;;;20.36;nan;95311.78;5510762;28;1085;-65
2022/09/22 08:31:21;;;;;;;;;;;;;;;20.38;nan;95303.63;5508873;28;1045;-67
2022/09/22 08:34:05;;;;;;;;;;;;;;;20.34;nan;95298.66;5509284;28;1082;-66
2022/09/22 08:36:47;;;;;;;;;;;;;;;20.36;nan;95300.31;5503696;28;1185;-65
2022/09/22 08:39:30;;;;;;;;;;;;;;;20.37;nan;95307.31;5512727;28;1062;-66
2022/09/22 08:42:17;;;;;;;;;;;;;;;20.34;nan;95309.34;5513447;28;1985;-67
2022/09/22 08:45:03;;;;;;;;;;;;;;;20.31;nan;95303.56;5513550;28;1164;-69
2022/09/22 08:53:51;;;;;;;;;;;;;;;20.32;nan;95279.38;5513079;28;1244;-67
2022/09/22 08:56:37;;;;;;;;;;;;;;;20.31;nan;95293.72;5513170;28;1021;-68
2022/09/22 08:59:21;;;;;;;;;;;;;;;20.31;nan;95288.38;5504319;28;1194;-67
2022/09/22 09:02:31;;;;;;;;;;;;;;;20.33;nan;95290.84;5513230;28;1981;-66
2022/09/22 09:05:14;;;;;;;;;;;;;;;;;;5512869;28;1129;-66
2022/09/22 09:08:01;;;;;;;;;;;;;;;20.31;nan;95288.38;5512618;28;998;-66
2022/09/22 09:10:49;;;;;;;;;;;;;;;20.30;nan;95281.41;5504630;28;1353;-66
2022/09/22 09:13:41;;;;;;;;;;;;;;;20.33;nan;95290.84;5513024;28;991;-67
2022/09/22 09:16:38;;;;;;;;;;;;;;;20.34;nan;95292.47;5512182;28;1164;-66
2022/09/22 09:19:29;;;;;;;;;;;;;;;20.32;nan;95273.22;5513079;28;1018;-68
2022/09/22 09:22:16;;;;;;;;;;;;;;;20.35;nan;95299.47;5504005;28;1942;-66
2022/09/22 09:25:01;;;;;;;;;;;;;;;20.32;nan;95284.69;5512642;28;998;-67
2022/09/22 09:28:05;;;;;;;;;;;;;;;20.33;nan;95286.31;5514146;28;1091;-66
2022/09/22 09:30:50;;;;;;;;;;;;;;;20.34;nan;95271.13;5514732;28;998;-66
2022/09/22 09:33:40;;;;;;;;;;;;;;;20.33;nan;95275.66;5504348;28;1198;-67
2022/09/22 09:36:28;;;;;;;;;;;;;;;20.34;nan;95271.97;5515373;28;1041;-66
2022/09/22 09:39:13;;;;;;;;;;;;;;;20.34;nan;95271.13;5515263;28;1022;-66
2022/09/22 09:41:56;;;;;;;;;;;;;;;20.33;nan;95274.84;5515434;28;1914;-66
2022/09/22 09:44:39;;;;;;;;;;;;;;;20.32;nan;95273.22;5505281;28;1106;-68
2022/09/22 09:47:30;;;;;;;;;;;;;;;20.32;nan;95267.88;5513309;28;1038;-66
2022/09/22 09:50:13;;;;;;;;;;;;;;;;;;5514630;28;934;-66
2022/09/22 09:52:58;;;;;;;;;;;;;;;20.32;nan;95273.22;5513516;28;1222;-67
2022/09/22 09:55:41;;;;;;;;;;;;;;;20.32;nan;95262.53;5505491;28;1087;-67
2022/09/22 10:01:24;;;;;;;;;;;;;;;20.33;nan;95248.97;5513298;28;2018;-66
2022/09/22 10:04:16;;;;;;;;;;;;;;;20.32;nan;95252.66;5513502;28;1014;-67
2022/09/22 10:07:12;;;;;;;;;;;;;;;20.34;nan;95255.13;5506203;28;1026;-68
2022/09/22 10:10:17;;;;;;;;;;;;;;;20.33;nan;95254.31;5512839;28;1085;-66
2022/09/22 10:13:20;;;;;;;;;;;;;;;20.32;nan;95247.34;5515108;28;1126;-66
2022/09/22 10:16:07;;;;;;;;;;;;;;;20.33;nan;95237.47;5512781;28;1358;-67
2022/09/22 10:18:51;;;;;;;;;;;;;;;20.33;nan;95248.97;5502981;28;1302;-67
2022/09/22 10:21:36;;;;;;;;;;;;;;;20.32;nan;95242.00;5513896;28;1898;-66
2022/09/22 10:24:19;;;;;;;;;;;;;;;;;;5514087;28;1235;-67
2022/09/22 10:27:04;;;;;;;;;;;;;;;20.32;nan;95236.66;5514869;28;1077;-66
2022/09/22 10:29:56;;;;;;;;;;;;;;;20.33;nan;95232.13;5504959;28;1304;-66
2022/09/22 10:32:38;;;;;;;;;;;;;;;20.34;nan;95233.78;5512943;28;1113;-66
2022/09/22 10:35:26;;;;;;;;;;;;;;;20.32;nan;95220.66;5513303;28;1033;-66
2022/09/22 10:38:09;;;;;;;;;;;;;;;;;;5513412;28;1081;-66
2022/09/22 10:40:55;;;;;;;;;;;;;;;20.31;nan;95219.00;5503924;28;1985;-66
2022/09/22 10:43:46;;;;;;;;;;;;;;;20.31;nan;95219.00;5512479;28;1089;-66
2022/09/22 10:46:37;;;;;;;;;;;;;;;20.31;nan;95229.66;5513489;28;1192;-66
2022/09/22 10:49:27;;;;;;;;;;;;;;;20.32;nan;95219.84;5513180;28;1001;-68
2022/09/22 10:52:15;;;;;;;;;;;;;;;20.31;nan;95218.19;5504483;28;1373;-67
2022/09/22 10:55:06;;;;;;;;;;;;;;;20.30;nan;95228.03;5513345;28;1045;-67
2022/09/22 10:57:59;;;;;;;;;;;;;;;20.31;nan;95219.00;5512661;28;1018;-67
2022/09/22 11:00:43;;;;;;;;;;;;;;;20.29;nan;95215.72;5513576;28;1180;-67
2022/09/22 11:03:40;;;;;;;;;;;;;;;20.30;nan;95212.03;5504329;28;1903;-67
2022/09/22 11:12:41;;;;;;;;;;;;;;;20.31;nan;95202.97;5513450;28;1113;-67
2022/09/22 11:15:33;;;;;;;;;;;;;;;20.32;nan;95199.31;5503891;28;1137;-66
2022/09/22 11:18:32;;;;;;;;;;;;;;;20.33;nan;95195.59;5512619;28;1082;-67
2022/09/22 11:21:25;;;;;;;;;;;;;;;20.32;nan;95187.81;5512172;28;1902;-66
2022/09/22 11:24:17;;;;;;;;;;;;;;;20.33;nan;95194.78;5512289;28;1053;-66
2022/09/22 11:27:01;;;;;;;;;;;;;;;20.32;nan;95177.13;5503896;28;1525;-66
2022/09/22 11:29:55;;;;;;;;;;;;;;;20.34;nan;95180.41;5510233;28;1038;-66
2022/09/22 11:33:01;;;;;;;;;;;;;;;20.34;nan;95197.25;5510619;28;1082;-66
2022/09/22 11:35:57;;;;;;;;;;;;;;;20.32;nan;95193.16;5492244;28;1042;-67
2022/09/22 11:38:46;;;;;;;;;;;;;;;20.31;nan;95176.28;5500712;28;1385;-67
2022/09/22 11:41:37;;;;;;;;;;;;;;;20.32;nan;95199.31;5509398;28;1914;-68
2022/09/22 11:44:38;;;;;;;;;;;;;;;20.33;nan;95178.78;5509189;28;1290;-67
2022/09/22 11:47:51;;;;;;;;;;;;;;;20.33;nan;95152.91;5510396;28;1025;-67
2022/09/22 11:50:52;;;;;;;;;;;;;;;20.33;nan;95179.59;5457492;28;1122;-67
2022/09/22 11:53:45;;;;;;;;;;;;;;;20.32;nan;95155.78;5509795;28;1437;-66
2022/09/22 11:56:34;;;;;;;;;;;;;;;20.33;nan;95168.09;5510341;28;1022;-67
2022/09/22 11:59:24;;;;;;;;;;;;;;;20.31;nan;95165.63;5506241;28;1595;-65
2022/09/22 12:02:25;;;;;;;;;;;;;;;20.33;nan;95173.44;5504236;28;1971;-67
2022/09/22 12:05:10;;;;;;;;;;;;;;;20.33;nan;95174.25;5508826;28;1133;-65
2022/09/22 12:07:58;;;;;;;;;;;;;;;20.34;nan;95169.72;5509363;28;1033;-66
2022/09/22 12:10:44;;;;;;;;;;;;;;;20.34;nan;95175.91;5508886;28;1417;-67
2022/09/22 12:13:27;;;;;;;;;;;;;;;;;;5508086;28;1192;-68
2022/09/22 12:16:12;;;;;;;;;;;;;;;20.33;nan;95179.59;5514065;28;1010;-67
2022/09/22 12:18:59;;;;;;;;;;;;;;;20.32;nan;95177.13;5513557;28;1010;-67
2022/09/22 12:21:45;;;;;;;;;;;;;;;20.34;nan;95169.72;5512864;28;1973;-66
2022/09/22 12:24:28;;;;;;;;;;;;;;;20.33;nan;95174.25;5504912;28;1479;-67
2022/09/22 12:27:19;;;;;;;;;;;;;;;20.33;nan;95163.56;5512916;28;1030;-67
2022/09/22 12:30:04;;;;;;;;;;;;;;;20.33;nan;95163.56;5513267;28;1080;-67
2022/09/22 12:32:51;;;;;;;;;;;;;;;20.34;nan;95164.38;5513249;28;1069;-67
2022/09/22 12:35:34;;;;;;;;;;;;;;;20.33;nan;95158.22;5503857;28;1258;-67
2022/09/22 12:38:17;;;;;;;;;;;;;;;20.34;nan;95165.22;5512702;28;990;-67
2022/09/22 12:41:03;;;;;;;;;;;;;;;20.34;nan;95154.56;5512893;28;1069;-67
2022/09/22 12:43:47;;;;;;;;;;;;;;;20.33;nan;95158.22;5512531;28;1906;-67
2022/09/22 12:46:31;;;;;;;;;;;;;;;20.33;nan;95157.41;5503472;28;1162;-67
2022/09/22 12:49:16;;;;;;;;;;;;;;;20.33;nan;95157.41;5511977;28;1289;-66
2022/09/22 12:51:59;;;;;;;;;;;;;;;20.33;nan;95152.91;5512290;28;1334;-66
2022/09/22 12:54:42;;;;;;;;;;;;;;;20.33;nan;95158.22;5512258;28;1357;-67
2022/09/22 12:57:29;;;;;;;;;;;;;;;20.31;nan;95149.59;5502937;28;1150;-68
2022/09/22 13:00:19;;;;;;;;;;;;;;;20.31;nan;95154.94;5512487;28;1054;-66
2022/09/22 13:03:29;;;;;;;;;;;;;;;20.31;nan;95154.94;5512015;28;1903;-66
2022/09/22 13:06:26;;;;;;;;;;;;;;;20.31;nan;95165.63;5511560;28;1105;-66
2022/09/22 13:09:18;;;;;;;;;;;;;;;20.31;nan;95170.97;5503209;28;1302;-67
2022/09/22 13:12:20;;;;;;;;;;;;;;;20.31;nan;95149.59;5511231;28;1105;-66
2022/09/22 13:15:24;;;;;;;;;;;;;;;20.31;nan;95176.28;5511810;28;1018;-67
2022/09/22 13:18:27;;;;;;;;;;;;;;;20.32;nan;95166.47;5511975;28;1114;-67
2022/09/22 13:21:19;;;;;;;;;;;;;;;20.32;nan;95156.59;5502549;28;1429;-67
2022/09/22 13:24:02;;;;;;;;;;;;;;;20.31;nan;95138.94;5512341;28;1910;-67
2022/09/22 13:26:45;;;;;;;;;;;;;;;20.31;nan;95149.59;5511289;28;1080;-67
2022/09/22 13:29:28;;;;;;;;;;;;;;;20.32;nan;95140.59;5511609;28;1010;-67
2022/09/22 13:32:16;;;;;;;;;;;;;;;20.32;nan;95145.13;5502226;28;1357;-67
2022/09/22 13:35:01;;;;;;;;;;;;;;;20.32;nan;95145.94;5511356;28;981;-67
2022/09/22 13:37:44;;;;;;;;;;;;;;;20.33;nan;95126.22;5511593;28;1041;-67
2022/09/22 13:40:28;;;;;;;;;;;;;;;20.32;nan;95135.25;5511531;28;982;-67
2022/09/22 13:43:11;;;;;;;;;;;;;;;20.31;nan;95122.09;5502339;28;1977;-67
2022/09/22 13:45:55;;;;;;;;;;;;;;;20.31;nan;95138.13;5511128;28;803;-67
2022/09/22 13:48:38;;;;;;;;;;;;;;;;;;5510814;28;1157;-67
2022/09/22 13:51:23;;;;;;;;;;;;;;;20.31;nan;95143.47;5510990;28;1068;-67
2022/09/22 13:54:08;;;;;;;;;;;;;;;20.30;nan;95142.63;5501739;28;1422;-67
2022/09/22 13:56:51;;;;;;;;;;;;;;;20.30;nan;95142.63;5510519;28;990;-67
2022/09/22 13:59:39;;;;;;;;;;;;;;;20.31;nan;95143.47;5511117;28;1081;-67
2022/09/22 14:02:25;;;;;;;;;;;;;;;20.30;nan;95153.31;5510485;28;931;-67
2022/09/22 14:05:17;;;;;;;;;;;;;;;20.30;nan;95147.16;5501456;28;1158;-66
2022/09/22 14:08:04;;;;;;;;;;;;;;;20.29;nan;95151.69;5510900;28;1387;-68
2022/09/22 14:10:56;;;;;;;;;;;;;;;20.29;nan;95150.88;5510727;28;1049;-66
2022/09/22 14:13:40;;;;;;;;;;;;;;;20.29;nan;95150.88;5510411;28;1006;-67
2022/09/22 14:16:24;;;;;;;;;;;;;;;20.29;nan;95156.22;5501702;28;1227;-66
2022/09/22 14:19:13;;;;;;;;;;;;;;;20.28;nan;95160.69;5510462;28;1029;-66
2022/09/22 14:21:59;;;;;;;;;;;;;;;20.30;nan;95157.84;5510656;28;986;-66
2022/09/22 14:24:46;;;;;;;;;;;;;;;20.29;nan;95141.00;5510558;28;1973;-66
2022/09/22 14:27:31;;;;;;;;;;;;;;;20.29;nan;95161.53;5501491;28;1096;-67
2022/09/22 14:30:16;;;;;;;;;;;;;;;20.29;nan;95167.69;5509812;28;1188;-68
2022/09/22 14:33:00;;;;;;;;;;;;;;;20.29;nan;95173.03;5508915;28;749;-66
2022/09/22 14:35:43;;;;;;;;;;;;;;;20.29;nan;95157.03;5510206;28;823;-67
2022/09/22 14:38:27;;;;;;;;;;;;;;;20.29;nan;95166.88;5505839;28;1251;-67
2022/09/22 14:41:21;;;;;;;;;;;;;;;20.28;nan;95160.69;5505225;28;1284;-66
2022/09/22 14:44:05;;;;;;;;;;;;;;;;;;5510195;28;2001;-67
2022/09/22 14:46:47;;;;;;;;;;;;;;;20.29;nan;95167.69;5509695;28;1129;-67
2022/09/22 14:49:38;;;;;;;;;;;;;;;20.28;nan;95166.03;5505295;28;1331;-67
2022/09/22 14:52:25;;;;;;;;;;;;;;;20.29;nan;95172.22;5504947;28;1248;-67
2022/09/22 14:55:14;;;;;;;;;;;;;;;20.30;nan;95173.84;5510000;28;1132;-66
2022/09/22 14:58:02;;;;;;;;;;;;;;;20.30;nan;95173.84;5510067;28;867;-67
2022/09/22 15:03:59;;;;;;;;;;;;;;;20.29;nan;95166.88;5504592;28;1977;-67
2022/09/22 15:06:45;;;;;;;;;;;;;;;20.28;nan;95171.38;5509607;28;826;-68
2022/09/22 15:09:30;;;;;;;;;;;;;;;20.29;nan;95167.69;5509335;28;1021;-67
2022/09/22 15:12:28;;;;;;;;;;;;;;;20.28;nan;95171.38;5505459;28;1576;-67
2022/09/22 15:15:10;;;;;;;;;;;;;;;;;;5504916;28;1053;-67
2022/09/22 15:20:57;;;;;;;;;;;;;;;20.27;nan;95184.94;5508233;28;1069;-67
2022/09/22 15:23:41;;;;;;;;;;;;;;;20.27;nan;95185.75;5504153;28;1987;-67
2022/09/22 15:26:24;;;;;;;;;;;;;;;;;;5503715;28;1169;-67
2022/09/22 15:29:11;;;;;;;;;;;;;;;20.28;nan;95186.56;5509653;28;1152;-67
2022/09/22 15:31:54;;;;;;;;;;;;;;;20.26;nan;95183.28;5508808;28;1038;-68
2022/09/22 15:34:42;;;;;;;;;;;;;;;20.26;nan;95189.47;5509073;28;1106;-66
2022/09/22 15:37:27;;;;;;;;;;;;;;;20.27;nan;95196.44;5501214;28;1300;-68
2022/09/22 15:40:17;;;;;;;;;;;;;;;20.27;nan;95206.28;5508629;28;1089;-66
2022/09/22 15:43:05;;;;;;;;;;;;;;;20.26;nan;95199.28;5508973;28;1113;-67